sensor_id;sensor_type;location;lat;lon;timestamp;P1;durP1;ratioP1;P2;durP2;ratioP2
4686;SDS011;2357;47.316;-1.348;2023-11-19T00:02:21;19.43;;;3.17;;
4686;SDS011;2357;47.316;-1.348;2023-11-19T00:04:47;37.73;;;2.97;;
4686;SDS011;2357;47.316;-1.348;2023-11-19T00:07:13;14.40;;;3.40;;
4686;SDS011;2357;47.316;-1.348;2023-11-19T00:09:39;22.97;;;2.60;;
4686;SDS011;2357;47.316;-1.348;2023-11-19T00:12:05;23.90;;;4.40;;
4686;SDS011;2357;47.316;-1.348;2023-11-19T00:14:32;15.70;;;2.37;;
4686;SDS011;2357;47.316;-1.348;2023-11-19T00:16:58;19.70;;;3.43;;
4686;SDS011;2357;47.316;-1.348;2023-11-19T00:19:24;19.17;;;2.43;;
4686;SDS011;2357;47.316;-1.348;2023-11-19T00:21:49;16.97;;;2.80;;
4686;SDS011;2357;47.316;-1.348;2023-11-19T00:24:15;22.87;;;2.70;;
4686;SDS011;2357;47.316;-1.348;2023-11-19T00:26:42;16.90;;;2.63;;
4686;SDS011;2357;47.316;-1.348;2023-11-19T00:29:08;12.43;;;2.80;;
4686;SDS011;2357;47.316;-1.348;2023-11-19T00:31:33;13.47;;;3.07;;
4686;SDS011;2357;47.316;-1.348;2023-11-19T00:33:59;26.30;;;3.17;;
4686;SDS011;2357;47.316;-1.348;2023-11-19T00:36:26;13.80;;;3.60;;
4686;SDS011;2357;47.316;-1.348;2023-11-19T00:38:53;39.63;;;4.73;;
4686;SDS011;2357;47.316;-1.348;2023-11-19T00:41:18;18.10;;;5.60;;
4686;SDS011;2357;47.316;-1.348;2023-11-19T00:43:44;14.80;;;2.23;;
4686;SDS011;2357;47.316;-1.348;2023-11-19T00:46:10;21.63;;;3.83;;
4686;SDS011;2357;47.316;-1.348;2023-11-19T00:48:39;29.57;;;2.33;;
4686;SDS011;2357;47.316;-1.348;2023-11-19T00:51:05;23.80;;;2.07;;
4686;SDS011;2357;47.316;-1.348;2023-11-19T00:53:31;7.83;;;1.93;;
4686;SDS011;2357;47.316;-1.348;2023-11-19T00:55:57;17.87;;;2.67;;
4686;SDS011;2357;47.316;-1.348;2023-11-19T00:58:23;17.90;;;3.57;;
4686;SDS011;2357;47.316;-1.348;2023-11-19T01:00:48;14.93;;;2.30;;
4686;SDS011;2357;47.316;-1.348;2023-11-19T01:03:14;14.83;;;3.10;;
4686;SDS011;2357;47.316;-1.348;2023-11-19T01:05:41;11.30;;;2.27;;
4686;SDS011;2357;47.316;-1.348;2023-11-19T01:08:07;22.83;;;2.87;;
4686;SDS011;2357;47.316;-1.348;2023-11-19T01:10:33;16.50;;;2.53;;
4686;SDS011;2357;47.316;-1.348;2023-11-19T01:12:59;6.00;;;1.50;;
4686;SDS011;2357;47.316;-1.348;2023-11-19T01:15:24;12.43;;;1.30;;
4686;SDS011;2357;47.316;-1.348;2023-11-19T01:17:50;15.03;;;3.17;;
4686;SDS011;2357;47.316;-1.348;2023-11-19T01:20:16;20.23;;;2.03;;
4686;SDS011;2357;47.316;-1.348;2023-11-19T01:22:42;12.77;;;1.80;;
4686;SDS011;2357;47.316;-1.348;2023-11-19T01:25:08;16.60;;;1.93;;
4686;SDS011;2357;47.316;-1.348;2023-11-19T01:27:34;14.20;;;2.60;;
4686;SDS011;2357;47.316;-1.348;2023-11-19T01:30:00;7.17;;;2.67;;
4686;SDS011;2357;47.316;-1.348;2023-11-19T01:32:30;7.13;;;1.60;;
4686;SDS011;2357;47.316;-1.348;2023-11-19T01:34:56;10.53;;;1.33;;
4686;SDS011;2357;47.316;-1.348;2023-11-19T01:37:22;15.27;;;1.80;;
4686;SDS011;2357;47.316;-1.348;2023-11-19T01:39:47;4.83;;;1.17;;
4686;SDS011;2357;47.316;-1.348;2023-11-19T01:42:13;9.00;;;1.43;;
4686;SDS011;2357;47.316;-1.348;2023-11-19T01:44:40;16.10;;;1.77;;
4686;SDS011;2357;47.316;-1.348;2023-11-19T01:47:06;4.47;;;1.27;;
4686;SDS011;2357;47.316;-1.348;2023-11-19T01:49:33;3.70;;;1.17;;
4686;SDS011;2357;47.316;-1.348;2023-11-19T01:51:59;7.20;;;1.53;;
4686;SDS011;2357;47.316;-1.348;2023-11-19T01:54:25;4.73;;;1.10;;
4686;SDS011;2357;47.316;-1.348;2023-11-19T01:56:52;4.73;;;0.90;;
4686;SDS011;2357;47.316;-1.348;2023-11-19T01:59:21;11.00;;;2.00;;
4686;SDS011;2357;47.316;-1.348;2023-11-19T02:01:51;7.33;;;0.90;;
4686;SDS011;2357;47.316;-1.348;2023-11-19T02:04:18;4.70;;;1.17;;
4686;SDS011;2357;47.316;-1.348;2023-11-19T02:06:47;9.47;;;1.20;;
4686;SDS011;2357;47.316;-1.348;2023-11-19T02:09:14;10.43;;;2.00;;
4686;SDS011;2357;47.316;-1.348;2023-11-19T02:11:44;10.63;;;1.67;;
4686;SDS011;2357;47.316;-1.348;2023-11-19T02:14:12;6.87;;;1.30;;
4686;SDS011;2357;47.316;-1.348;2023-11-19T02:16:38;20.50;;;2.23;;
4686;SDS011;2357;47.316;-1.348;2023-11-19T02:19:04;6.90;;;1.43;;
4686;SDS011;2357;47.316;-1.348;2023-11-19T02:21:31;13.47;;;1.13;;
4686;SDS011;2357;47.316;-1.348;2023-11-19T02:23:56;14.83;;;2.47;;
4686;SDS011;2357;47.316;-1.348;2023-11-19T02:26:30;23.60;;;1.80;;
4686;SDS011;2357;47.316;-1.348;2023-11-19T02:29:04;13.23;;;2.33;;
4686;SDS011;2357;47.316;-1.348;2023-11-19T02:31:31;18.97;;;3.73;;
4686;SDS011;2357;47.316;-1.348;2023-11-19T02:33:57;11.70;;;2.13;;
4686;SDS011;2357;47.316;-1.348;2023-11-19T02:36:25;15.27;;;2.87;;
4686;SDS011;2357;47.316;-1.348;2023-11-19T02:38:50;24.03;;;2.90;;
4686;SDS011;2357;47.316;-1.348;2023-11-19T02:41:16;16.73;;;3.10;;
4686;SDS011;2357;47.316;-1.348;2023-11-19T02:43:42;13.87;;;2.53;;
4686;SDS011;2357;47.316;-1.348;2023-11-19T02:46:07;21.93;;;2.60;;
4686;SDS011;2357;47.316;-1.348;2023-11-19T02:48:33;17.60;;;2.53;;
4686;SDS011;2357;47.316;-1.348;2023-11-19T02:51:02;16.20;;;2.47;;
4686;SDS011;2357;47.316;-1.348;2023-11-19T02:53:29;10.57;;;2.80;;
4686;SDS011;2357;47.316;-1.348;2023-11-19T02:55:57;17.97;;;3.20;;
4686;SDS011;2357;47.316;-1.348;2023-11-19T02:58:42;19.17;;;2.70;;
4686;SDS011;2357;47.316;-1.348;2023-11-19T03:01:10;20.20;;;3.00;;
4686;SDS011;2357;47.316;-1.348;2023-11-19T03:03:44;24.90;;;4.00;;
4686;SDS011;2357;47.316;-1.348;2023-11-19T03:06:14;25.10;;;2.80;;
4686;SDS011;2357;47.316;-1.348;2023-11-19T03:08:39;21.50;;;3.40;;
4686;SDS011;2357;47.316;-1.348;2023-11-19T03:11:05;21.50;;;2.60;;
4686;SDS011;2357;47.316;-1.348;2023-11-19T03:13:31;15.90;;;3.70;;
4686;SDS011;2357;47.316;-1.348;2023-11-19T03:15:56;22.67;;;3.50;;
4686;SDS011;2357;47.316;-1.348;2023-11-19T03:18:22;22.30;;;2.33;;
4686;SDS011;2357;47.316;-1.348;2023-11-19T03:20:47;19.77;;;3.40;;
4686;SDS011;2357;47.316;-1.348;2023-11-19T03:23:14;17.03;;;3.40;;
4686;SDS011;2357;47.316;-1.348;2023-11-19T03:25:40;32.87;;;4.57;;
4686;SDS011;2357;47.316;-1.348;2023-11-19T03:28:05;25.43;;;4.00;;
4686;SDS011;2357;47.316;-1.348;2023-11-19T03:30:31;23.30;;;4.37;;
4686;SDS011;2357;47.316;-1.348;2023-11-19T03:32:58;22.13;;;3.13;;
4686;SDS011;2357;47.316;-1.348;2023-11-19T03:35:24;20.30;;;2.87;;
4686;SDS011;2357;47.316;-1.348;2023-11-19T03:37:50;17.23;;;3.57;;
4686;SDS011;2357;47.316;-1.348;2023-11-19T03:40:17;25.43;;;2.63;;
4686;SDS011;2357;47.316;-1.348;2023-11-19T03:42:44;24.80;;;3.20;;
4686;SDS011;2357;47.316;-1.348;2023-11-19T03:45:10;33.03;;;3.47;;
4686;SDS011;2357;47.316;-1.348;2023-11-19T03:47:35;17.90;;;3.53;;
4686;SDS011;2357;47.316;-1.348;2023-11-19T03:50:01;16.83;;;2.23;;
4686;SDS011;2357;47.316;-1.348;2023-11-19T03:52:27;15.30;;;2.90;;
4686;SDS011;2357;47.316;-1.348;2023-11-19T03:54:54;19.47;;;3.43;;
4686;SDS011;2357;47.316;-1.348;2023-11-19T03:57:20;21.10;;;3.93;;
4686;SDS011;2357;47.316;-1.348;2023-11-19T03:59:46;26.93;;;2.70;;
4686;SDS011;2357;47.316;-1.348;2023-11-19T04:02:12;30.53;;;3.83;;
4686;SDS011;2357;47.316;-1.348;2023-11-19T04:04:38;17.80;;;3.40;;
4686;SDS011;2357;47.316;-1.348;2023-11-19T04:07:04;21.47;;;3.30;;
4686;SDS011;2357;47.316;-1.348;2023-11-19T04:09:30;20.17;;;3.10;;
4686;SDS011;2357;47.316;-1.348;2023-11-19T04:11:57;22.10;;;4.37;;
4686;SDS011;2357;47.316;-1.348;2023-11-19T04:14:24;35.20;;;3.40;;
4686;SDS011;2357;47.316;-1.348;2023-11-19T04:16:50;30.03;;;3.50;;
4686;SDS011;2357;47.316;-1.348;2023-11-19T04:19:16;26.70;;;3.63;;
4686;SDS011;2357;47.316;-1.348;2023-11-19T04:21:42;24.00;;;2.80;;
4686;SDS011;2357;47.316;-1.348;2023-11-19T04:24:08;22.53;;;2.80;;
4686;SDS011;2357;47.316;-1.348;2023-11-19T04:26:40;21.47;;;3.13;;
4686;SDS011;2357;47.316;-1.348;2023-11-19T04:29:11;16.90;;;3.00;;
4686;SDS011;2357;47.316;-1.348;2023-11-19T04:31:38;26.30;;;3.10;;
4686;SDS011;2357;47.316;-1.348;2023-11-19T04:34:04;34.17;;;3.80;;
4686;SDS011;2357;47.316;-1.348;2023-11-19T04:36:31;18.70;;;3.87;;
4686;SDS011;2357;47.316;-1.348;2023-11-19T04:38:58;37.40;;;4.73;;
4686;SDS011;2357;47.316;-1.348;2023-11-19T04:41:24;18.33;;;3.10;;
4686;SDS011;2357;47.316;-1.348;2023-11-19T04:43:51;26.17;;;4.07;;
4686;SDS011;2357;47.316;-1.348;2023-11-19T04:46:16;25.70;;;3.70;;
4686;SDS011;2357;47.316;-1.348;2023-11-19T04:48:42;23.43;;;3.80;;
4686;SDS011;2357;47.316;-1.348;2023-11-19T04:51:08;26.37;;;4.17;;
4686;SDS011;2357;47.316;-1.348;2023-11-19T04:53:34;28.80;;;3.90;;
4686;SDS011;2357;47.316;-1.348;2023-11-19T04:56:00;24.63;;;3.23;;
4686;SDS011;2357;47.316;-1.348;2023-11-19T04:58:28;29.07;;;4.03;;
4686;SDS011;2357;47.316;-1.348;2023-11-19T05:00:54;38.23;;;4.50;;
4686;SDS011;2357;47.316;-1.348;2023-11-19T05:03:20;23.07;;;3.03;;
4686;SDS011;2357;47.316;-1.348;2023-11-19T05:05:47;16.77;;;3.07;;
4686;SDS011;2357;47.316;-1.348;2023-11-19T05:08:13;25.27;;;3.43;;
4686;SDS011;2357;47.316;-1.348;2023-11-19T05:10:39;29.20;;;3.60;;
4686;SDS011;2357;47.316;-1.348;2023-11-19T05:13:06;23.57;;;3.93;;
4686;SDS011;2357;47.316;-1.348;2023-11-19T05:15:32;28.53;;;4.70;;
4686;SDS011;2357;47.316;-1.348;2023-11-19T05:17:58;35.13;;;4.47;;
4686;SDS011;2357;47.316;-1.348;2023-11-19T05:20:24;29.63;;;4.90;;
4686;SDS011;2357;47.316;-1.348;2023-11-19T05:22:49;27.43;;;3.63;;
4686;SDS011;2357;47.316;-1.348;2023-11-19T05:25:17;23.03;;;4.03;;
4686;SDS011;2357;47.316;-1.348;2023-11-19T05:27:42;25.57;;;3.97;;
4686;SDS011;2357;47.316;-1.348;2023-11-19T05:30:08;18.33;;;3.97;;
4686;SDS011;2357;47.316;-1.348;2023-11-19T05:32:35;19.53;;;5.20;;
4686;SDS011;2357;47.316;-1.348;2023-11-19T05:35:01;43.57;;;6.30;;
4686;SDS011;2357;47.316;-1.348;2023-11-19T05:37:26;19.80;;;4.07;;
4686;SDS011;2357;47.316;-1.348;2023-11-19T05:39:52;29.23;;;4.77;;
4686;SDS011;2357;47.316;-1.348;2023-11-19T05:42:18;28.83;;;4.10;;
4686;SDS011;2357;47.316;-1.348;2023-11-19T05:44:43;51.53;;;5.20;;
4686;SDS011;2357;47.316;-1.348;2023-11-19T05:47:09;28.03;;;4.53;;
4686;SDS011;2357;47.316;-1.348;2023-11-19T05:49:35;32.03;;;5.70;;
4686;SDS011;2357;47.316;-1.348;2023-11-19T05:52:00;23.33;;;3.63;;
4686;SDS011;2357;47.316;-1.348;2023-11-19T05:54:28;25.97;;;4.03;;
4686;SDS011;2357;47.316;-1.348;2023-11-19T05:56:54;35.90;;;5.30;;
4686;SDS011;2357;47.316;-1.348;2023-11-19T05:59:20;24.97;;;4.57;;
4686;SDS011;2357;47.316;-1.348;2023-11-19T06:01:47;35.47;;;3.80;;
4686;SDS011;2357;47.316;-1.348;2023-11-19T06:04:13;29.47;;;3.00;;
4686;SDS011;2357;47.316;-1.348;2023-11-19T06:06:39;32.90;;;4.10;;
4686;SDS011;2357;47.316;-1.348;2023-11-19T06:09:05;32.87;;;4.80;;
4686;SDS011;2357;47.316;-1.348;2023-11-19T06:11:31;24.43;;;3.50;;
4686;SDS011;2357;47.316;-1.348;2023-11-19T06:13:58;32.90;;;4.50;;
4686;SDS011;2357;47.316;-1.348;2023-11-19T06:16:23;23.83;;;4.37;;
4686;SDS011;2357;47.316;-1.348;2023-11-19T06:18:49;22.03;;;3.80;;
4686;SDS011;2357;47.316;-1.348;2023-11-19T06:21:15;24.20;;;4.07;;
4686;SDS011;2357;47.316;-1.348;2023-11-19T06:23:41;41.60;;;5.70;;
4686;SDS011;2357;47.316;-1.348;2023-11-19T06:26:07;35.77;;;4.57;;
4686;SDS011;2357;47.316;-1.348;2023-11-19T06:28:33;28.30;;;3.17;;
4686;SDS011;2357;47.316;-1.348;2023-11-19T06:30:59;35.13;;;4.83;;
4686;SDS011;2357;47.316;-1.348;2023-11-19T06:33:25;25.83;;;3.67;;
4686;SDS011;2357;47.316;-1.348;2023-11-19T06:35:52;28.40;;;4.57;;
4686;SDS011;2357;47.316;-1.348;2023-11-19T06:38:17;30.03;;;4.03;;
4686;SDS011;2357;47.316;-1.348;2023-11-19T06:40:43;43.10;;;3.93;;
4686;SDS011;2357;47.316;-1.348;2023-11-19T06:43:09;39.40;;;4.20;;
4686;SDS011;2357;47.316;-1.348;2023-11-19T06:45:35;21.43;;;3.60;;
4686;SDS011;2357;47.316;-1.348;2023-11-19T06:48:02;29.77;;;4.43;;
4686;SDS011;2357;47.316;-1.348;2023-11-19T06:50:31;23.30;;;4.10;;
4686;SDS011;2357;47.316;-1.348;2023-11-19T06:52:57;17.80;;;2.43;;
4686;SDS011;2357;47.316;-1.348;2023-11-19T06:55:23;17.80;;;3.50;;
4686;SDS011;2357;47.316;-1.348;2023-11-19T06:57:48;27.63;;;3.93;;
4686;SDS011;2357;47.316;-1.348;2023-11-19T07:00:14;48.83;;;4.07;;
4686;SDS011;2357;47.316;-1.348;2023-11-19T07:02:40;41.93;;;5.93;;
4686;SDS011;2357;47.316;-1.348;2023-11-19T07:05:06;25.43;;;4.17;;
4686;SDS011;2357;47.316;-1.348;2023-11-19T07:07:33;36.57;;;5.83;;
4686;SDS011;2357;47.316;-1.348;2023-11-19T07:09:58;31.03;;;4.20;;
4686;SDS011;2357;47.316;-1.348;2023-11-19T07:12:24;18.33;;;4.07;;
4686;SDS011;2357;47.316;-1.348;2023-11-19T07:14:53;23.33;;;3.17;;
4686;SDS011;2357;47.316;-1.348;2023-11-19T07:17:20;20.57;;;4.20;;
4686;SDS011;2357;47.316;-1.348;2023-11-19T07:19:46;23.83;;;4.13;;
4686;SDS011;2357;47.316;-1.348;2023-11-19T07:22:12;33.47;;;5.23;;
4686;SDS011;2357;47.316;-1.348;2023-11-19T07:24:39;28.37;;;4.57;;
4686;SDS011;2357;47.316;-1.348;2023-11-19T07:27:05;30.60;;;5.23;;
4686;SDS011;2357;47.316;-1.348;2023-11-19T07:29:31;29.10;;;4.53;;
4686;SDS011;2357;47.316;-1.348;2023-11-19T07:31:57;29.33;;;5.70;;
4686;SDS011;2357;47.316;-1.348;2023-11-19T07:34:23;45.20;;;5.73;;
4686;SDS011;2357;47.316;-1.348;2023-11-19T07:36:49;20.23;;;4.80;;
4686;SDS011;2357;47.316;-1.348;2023-11-19T07:39:15;22.10;;;4.27;;
4686;SDS011;2357;47.316;-1.348;2023-11-19T07:41:41;32.80;;;4.93;;
4686;SDS011;2357;47.316;-1.348;2023-11-19T07:44:06;33.77;;;4.60;;
4686;SDS011;2357;47.316;-1.348;2023-11-19T07:46:32;26.50;;;5.23;;
4686;SDS011;2357;47.316;-1.348;2023-11-19T07:48:58;40.97;;;5.93;;
4686;SDS011;2357;47.316;-1.348;2023-11-19T07:51:23;24.23;;;3.17;;
4686;SDS011;2357;47.316;-1.348;2023-11-19T07:53:49;40.07;;;4.27;;
4686;SDS011;2357;47.316;-1.348;2023-11-19T07:56:14;31.57;;;4.40;;
4686;SDS011;2357;47.316;-1.348;2023-11-19T07:58:40;30.17;;;4.70;;
4686;SDS011;2357;47.316;-1.348;2023-11-19T08:01:06;34.17;;;5.27;;
4686;SDS011;2357;47.316;-1.348;2023-11-19T08:03:31;27.00;;;4.20;;
4686;SDS011;2357;47.316;-1.348;2023-11-19T08:05:59;15.97;;;3.07;;
4686;SDS011;2357;47.316;-1.348;2023-11-19T08:08:25;28.73;;;4.03;;
4686;SDS011;2357;47.316;-1.348;2023-11-19T08:10:50;28.83;;;3.23;;
4686;SDS011;2357;47.316;-1.348;2023-11-19T08:13:21;35.60;;;4.17;;
4686;SDS011;2357;47.316;-1.348;2023-11-19T08:15:47;39.33;;;5.10;;
4686;SDS011;2357;47.316;-1.348;2023-11-19T08:18:12;38.37;;;4.20;;
4686;SDS011;2357;47.316;-1.348;2023-11-19T08:20:38;26.43;;;4.10;;
4686;SDS011;2357;47.316;-1.348;2023-11-19T08:23:04;31.70;;;5.10;;
4686;SDS011;2357;47.316;-1.348;2023-11-19T08:25:30;31.23;;;4.13;;
4686;SDS011;2357;47.316;-1.348;2023-11-19T08:27:55;54.87;;;5.73;;
4686;SDS011;2357;47.316;-1.348;2023-11-19T08:30:21;27.43;;;3.87;;
4686;SDS011;2357;47.316;-1.348;2023-11-19T08:32:46;30.07;;;5.30;;
4686;SDS011;2357;47.316;-1.348;2023-11-19T08:35:12;33.50;;;4.67;;
4686;SDS011;2357;47.316;-1.348;2023-11-19T08:37:38;41.63;;;4.80;;
4686;SDS011;2357;47.316;-1.348;2023-11-19T08:40:03;24.03;;;3.80;;
4686;SDS011;2357;47.316;-1.348;2023-11-19T08:42:30;31.40;;;4.63;;
4686;SDS011;2357;47.316;-1.348;2023-11-19T08:44:55;32.87;;;4.63;;
4686;SDS011;2357;47.316;-1.348;2023-11-19T08:47:21;32.20;;;4.60;;
4686;SDS011;2357;47.316;-1.348;2023-11-19T08:49:48;27.20;;;4.90;;
4686;SDS011;2357;47.316;-1.348;2023-11-19T08:52:20;26.33;;;4.90;;
4686;SDS011;2357;47.316;-1.348;2023-11-19T08:54:45;32.40;;;6.93;;
4686;SDS011;2357;47.316;-1.348;2023-11-19T08:57:11;36.53;;;6.87;;
4686;SDS011;2357;47.316;-1.348;2023-11-19T08:59:36;47.20;;;8.30;;
4686;SDS011;2357;47.316;-1.348;2023-11-19T09:02:05;36.40;;;6.43;;
4686;SDS011;2357;47.316;-1.348;2023-11-19T09:04:31;38.67;;;6.10;;
4686;SDS011;2357;47.316;-1.348;2023-11-19T09:06:57;37.60;;;6.80;;
4686;SDS011;2357;47.316;-1.348;2023-11-19T09:09:23;36.23;;;8.40;;
4686;SDS011;2357;47.316;-1.348;2023-11-19T09:11:49;27.10;;;6.27;;
4686;SDS011;2357;47.316;-1.348;2023-11-19T09:14:14;37.23;;;6.00;;
4686;SDS011;2357;47.316;-1.348;2023-11-19T09:16:40;34.23;;;6.83;;
4686;SDS011;2357;47.316;-1.348;2023-11-19T09:19:06;46.13;;;9.03;;
4686;SDS011;2357;47.316;-1.348;2023-11-19T09:21:31;49.53;;;6.93;;
4686;SDS011;2357;47.316;-1.348;2023-11-19T09:23:59;36.20;;;6.73;;
4686;SDS011;2357;47.316;-1.348;2023-11-19T09:26:25;25.93;;;5.70;;
4686;SDS011;2357;47.316;-1.348;2023-11-19T09:28:50;27.27;;;6.30;;
4686;SDS011;2357;47.316;-1.348;2023-11-19T09:31:16;30.00;;;4.33;;
4686;SDS011;2357;47.316;-1.348;2023-11-19T09:33:43;33.07;;;6.43;;
4686;SDS011;2357;47.316;-1.348;2023-11-19T09:36:09;29.00;;;4.97;;
4686;SDS011;2357;47.316;-1.348;2023-11-19T09:38:38;42.67;;;4.67;;
4686;SDS011;2357;47.316;-1.348;2023-11-19T09:41:05;27.80;;;6.33;;
4686;SDS011;2357;47.316;-1.348;2023-11-19T09:43:35;31.07;;;4.97;;
4686;SDS011;2357;47.316;-1.348;2023-11-19T09:46:04;26.13;;;4.73;;
4686;SDS011;2357;47.316;-1.348;2023-11-19T09:48:34;43.00;;;4.93;;
4686;SDS011;2357;47.316;-1.348;2023-11-19T09:51:02;25.90;;;4.93;;
4686;SDS011;2357;47.316;-1.348;2023-11-19T09:53:28;38.27;;;5.53;;
4686;SDS011;2357;47.316;-1.348;2023-11-19T09:55:53;29.60;;;5.13;;
4686;SDS011;2357;47.316;-1.348;2023-11-19T09:58:21;26.27;;;4.70;;
4686;SDS011;2357;47.316;-1.348;2023-11-19T10:00:47;40.33;;;5.67;;
4686;SDS011;2357;47.316;-1.348;2023-11-19T10:03:15;31.07;;;3.87;;
4686;SDS011;2357;47.316;-1.348;2023-11-19T10:05:41;26.73;;;4.43;;
4686;SDS011;2357;47.316;-1.348;2023-11-19T10:08:06;36.47;;;5.33;;
4686;SDS011;2357;47.316;-1.348;2023-11-19T10:10:36;25.67;;;4.70;;
4686;SDS011;2357;47.316;-1.348;2023-11-19T10:13:02;32.33;;;4.07;;
4686;SDS011;2357;47.316;-1.348;2023-11-19T10:15:28;35.90;;;6.23;;
4686;SDS011;2357;47.316;-1.348;2023-11-19T10:18:02;27.97;;;5.10;;
4686;SDS011;2357;47.316;-1.348;2023-11-19T10:20:37;35.70;;;5.70;;
4686;SDS011;2357;47.316;-1.348;2023-11-19T10:23:05;32.03;;;4.00;;
4686;SDS011;2357;47.316;-1.348;2023-11-19T10:25:31;28.43;;;4.97;;
4686;SDS011;2357;47.316;-1.348;2023-11-19T10:27:58;32.73;;;5.10;;
4686;SDS011;2357;47.316;-1.348;2023-11-19T10:30:25;28.77;;;5.27;;
4686;SDS011;2357;47.316;-1.348;2023-11-19T10:33:02;24.23;;;4.87;;
4686;SDS011;2357;47.316;-1.348;2023-11-19T10:35:30;22.70;;;4.73;;
4686;SDS011;2357;47.316;-1.348;2023-11-19T10:38:01;28.07;;;5.10;;
4686;SDS011;2357;47.316;-1.348;2023-11-19T10:40:38;23.23;;;4.47;;
4686;SDS011;2357;47.316;-1.348;2023-11-19T10:43:05;19.13;;;3.67;;
4686;SDS011;2357;47.316;-1.348;2023-11-19T10:45:32;33.67;;;4.30;;
4686;SDS011;2357;47.316;-1.348;2023-11-19T10:47:59;27.80;;;4.77;;
4686;SDS011;2357;47.316;-1.348;2023-11-19T10:50:24;18.40;;;3.80;;
4686;SDS011;2357;47.316;-1.348;2023-11-19T10:52:52;18.50;;;3.20;;
4686;SDS011;2357;47.316;-1.348;2023-11-19T10:55:27;32.67;;;4.27;;
4686;SDS011;2357;47.316;-1.348;2023-11-19T10:57:55;43.53;;;7.17;;
4686;SDS011;2357;47.316;-1.348;2023-11-19T11:00:26;40.53;;;5.00;;
4686;SDS011;2357;47.316;-1.348;2023-11-19T11:02:56;25.73;;;3.97;;
4686;SDS011;2357;47.316;-1.348;2023-11-19T11:05:26;28.80;;;3.63;;
4686;SDS011;2357;47.316;-1.348;2023-11-19T11:07:52;29.77;;;4.17;;
4686;SDS011;2357;47.316;-1.348;2023-11-19T11:10:21;20.67;;;3.63;;
4686;SDS011;2357;47.316;-1.348;2023-11-19T11:12:51;22.40;;;4.00;;
4686;SDS011;2357;47.316;-1.348;2023-11-19T11:15:24;16.70;;;3.37;;
4686;SDS011;2357;47.316;-1.348;2023-11-19T11:17:54;17.70;;;4.10;;
4686;SDS011;2357;47.316;-1.348;2023-11-19T11:20:26;18.87;;;4.23;;
4686;SDS011;2357;47.316;-1.348;2023-11-19T11:29:01;22.20;;;3.80;;
4686;SDS011;2357;47.316;-1.348;2023-11-19T11:32:01;20.17;;;3.83;;
4686;SDS011;2357;47.316;-1.348;2023-11-19T11:34:45;21.50;;;3.73;;
4686;SDS011;2357;47.316;-1.348;2023-11-19T11:37:18;18.33;;;2.83;;
4686;SDS011;2357;47.316;-1.348;2023-11-19T11:39:50;33.50;;;4.00;;
4686;SDS011;2357;47.316;-1.348;2023-11-19T11:55:34;20.47;;;3.70;;
4686;SDS011;2357;47.316;-1.348;2023-11-19T11:58:03;19.13;;;3.70;;
4686;SDS011;2357;47.316;-1.348;2023-11-19T12:00:30;20.33;;;3.40;;
4686;SDS011;2357;47.316;-1.348;2023-11-19T12:02:59;26.03;;;4.20;;
4686;SDS011;2357;47.316;-1.348;2023-11-19T12:05:26;28.83;;;3.80;;
4686;SDS011;2357;47.316;-1.348;2023-11-19T12:07:55;10.47;;;2.73;;
4686;SDS011;2357;47.316;-1.348;2023-11-19T12:10:23;28.00;;;4.23;;
4686;SDS011;2357;47.316;-1.348;2023-11-19T12:12:52;14.30;;;3.93;;
4686;SDS011;2357;47.316;-1.348;2023-11-19T12:15:18;22.53;;;3.30;;
4686;SDS011;2357;47.316;-1.348;2023-11-19T12:17:48;13.50;;;2.77;;
4686;SDS011;2357;47.316;-1.348;2023-11-19T12:20:15;20.83;;;3.77;;
4686;SDS011;2357;47.316;-1.348;2023-11-19T12:22:42;17.53;;;3.20;;
4686;SDS011;2357;47.316;-1.348;2023-11-19T12:25:09;11.80;;;2.77;;
4686;SDS011;2357;47.316;-1.348;2023-11-19T12:27:37;27.33;;;3.53;;
4686;SDS011;2357;47.316;-1.348;2023-11-19T12:30:05;27.23;;;3.10;;
4686;SDS011;2357;47.316;-1.348;2023-11-19T12:32:41;15.90;;;3.10;;
4686;SDS011;2357;47.316;-1.348;2023-11-19T12:35:07;18.40;;;3.57;;
4686;SDS011;2357;47.316;-1.348;2023-11-19T12:37:46;32.47;;;4.80;;
4686;SDS011;2357;47.316;-1.348;2023-11-19T12:42:55;19.20;;;3.43;;
4686;SDS011;2357;47.316;-1.348;2023-11-19T12:45:22;20.63;;;3.73;;
4686;SDS011;2357;47.316;-1.348;2023-11-19T12:47:49;17.90;;;3.53;;
4686;SDS011;2357;47.316;-1.348;2023-11-19T12:50:17;24.20;;;3.50;;
4686;SDS011;2357;47.316;-1.348;2023-11-19T12:52:54;31.27;;;4.13;;
4686;SDS011;2357;47.316;-1.348;2023-11-19T12:57:51;18.50;;;3.57;;
4686;SDS011;2357;47.316;-1.348;2023-11-19T13:00:20;19.20;;;3.67;;
4686;SDS011;2357;47.316;-1.348;2023-11-19T13:02:48;19.37;;;2.77;;
4686;SDS011;2357;47.316;-1.348;2023-11-19T13:05:20;20.90;;;3.27;;
4686;SDS011;2357;47.316;-1.348;2023-11-19T13:08:05;22.53;;;3.20;;
4686;SDS011;2357;47.316;-1.348;2023-11-19T13:10:53;17.77;;;3.67;;
4686;SDS011;2357;47.316;-1.348;2023-11-19T13:13:20;20.47;;;3.37;;
4686;SDS011;2357;47.316;-1.348;2023-11-19T13:15:46;19.73;;;3.37;;
4686;SDS011;2357;47.316;-1.348;2023-11-19T13:18:12;24.00;;;4.40;;
4686;SDS011;2357;47.316;-1.348;2023-11-19T13:20:39;12.87;;;2.63;;
4686;SDS011;2357;47.316;-1.348;2023-11-19T13:23:05;28.50;;;4.10;;
4686;SDS011;2357;47.316;-1.348;2023-11-19T13:25:35;27.73;;;3.73;;
4686;SDS011;2357;47.316;-1.348;2023-11-19T13:28:01;22.60;;;4.20;;
4686;SDS011;2357;47.316;-1.348;2023-11-19T13:30:27;20.90;;;4.10;;
4686;SDS011;2357;47.316;-1.348;2023-11-19T13:32:54;22.63;;;4.30;;
4686;SDS011;2357;47.316;-1.348;2023-11-19T13:35:20;21.10;;;3.73;;
4686;SDS011;2357;47.316;-1.348;2023-11-19T13:37:46;27.37;;;4.57;;
4686;SDS011;2357;47.316;-1.348;2023-11-19T13:40:12;16.40;;;2.50;;
4686;SDS011;2357;47.316;-1.348;2023-11-19T13:42:41;14.93;;;2.63;;
4686;SDS011;2357;47.316;-1.348;2023-11-19T13:45:10;19.87;;;3.30;;
4686;SDS011;2357;47.316;-1.348;2023-11-19T13:47:41;16.23;;;2.20;;
4686;SDS011;2357;47.316;-1.348;2023-11-19T13:50:13;12.20;;;2.60;;
4686;SDS011;2357;47.316;-1.348;2023-11-19T13:52:41;16.27;;;3.33;;
4686;SDS011;2357;47.316;-1.348;2023-11-19T13:55:09;14.67;;;2.70;;
4686;SDS011;2357;47.316;-1.348;2023-11-19T13:57:39;14.30;;;2.60;;
4686;SDS011;2357;47.316;-1.348;2023-11-19T14:00:06;10.00;;;2.87;;
4686;SDS011;2357;47.316;-1.348;2023-11-19T14:02:44;15.90;;;2.70;;
4686;SDS011;2357;47.316;-1.348;2023-11-19T14:05:11;17.50;;;3.30;;
4686;SDS011;2357;47.316;-1.348;2023-11-19T14:07:40;18.07;;;3.00;;
4686;SDS011;2357;47.316;-1.348;2023-11-19T14:10:06;12.53;;;2.93;;
4686;SDS011;2357;47.316;-1.348;2023-11-19T14:12:34;12.00;;;2.93;;
4686;SDS011;2357;47.316;-1.348;2023-11-19T14:15:00;22.93;;;2.40;;
4686;SDS011;2357;47.316;-1.348;2023-11-19T14:17:26;18.60;;;3.13;;
4686;SDS011;2357;47.316;-1.348;2023-11-19T14:19:52;9.90;;;1.93;;
4686;SDS011;2357;47.316;-1.348;2023-11-19T14:22:17;21.63;;;2.57;;
4686;SDS011;2357;47.316;-1.348;2023-11-19T14:24:43;21.17;;;3.50;;
4686;SDS011;2357;47.316;-1.348;2023-11-19T14:27:09;9.87;;;2.70;;
4686;SDS011;2357;47.316;-1.348;2023-11-19T14:29:35;21.20;;;3.70;;
4686;SDS011;2357;47.316;-1.348;2023-11-19T14:32:01;27.13;;;3.53;;
4686;SDS011;2357;47.316;-1.348;2023-11-19T14:34:28;19.67;;;3.50;;
4686;SDS011;2357;47.316;-1.348;2023-11-19T14:36:57;11.33;;;3.17;;
4686;SDS011;2357;47.316;-1.348;2023-11-19T14:39:23;19.63;;;3.37;;
4686;SDS011;2357;47.316;-1.348;2023-11-19T14:41:49;14.00;;;2.13;;
4686;SDS011;2357;47.316;-1.348;2023-11-19T14:44:15;20.10;;;3.03;;
4686;SDS011;2357;47.316;-1.348;2023-11-19T14:46:41;16.40;;;2.70;;
4686;SDS011;2357;47.316;-1.348;2023-11-19T14:49:07;15.57;;;3.40;;
4686;SDS011;2357;47.316;-1.348;2023-11-19T14:51:39;17.30;;;3.17;;
4686;SDS011;2357;47.316;-1.348;2023-11-19T14:54:05;16.80;;;2.37;;
4686;SDS011;2357;47.316;-1.348;2023-11-19T14:56:31;14.83;;;3.20;;
4686;SDS011;2357;47.316;-1.348;2023-11-19T14:58:57;26.83;;;4.00;;
4686;SDS011;2357;47.316;-1.348;2023-11-19T15:01:23;26.93;;;4.33;;
4686;SDS011;2357;47.316;-1.348;2023-11-19T15:03:50;20.20;;;3.20;;
4686;SDS011;2357;47.316;-1.348;2023-11-19T15:06:16;34.33;;;2.87;;
4686;SDS011;2357;47.316;-1.348;2023-11-19T15:08:41;20.00;;;4.20;;
4686;SDS011;2357;47.316;-1.348;2023-11-19T15:11:08;20.07;;;3.50;;
4686;SDS011;2357;47.316;-1.348;2023-11-19T15:13:34;25.53;;;5.10;;